createdAt,value
2018-07-13T00:02:25.361Z,54.10
2018-07-13T00:07:28.678Z,54.00
2018-07-13T00:12:32.041Z,54.30
2018-07-13T00:17:35.415Z,54.40
2018-07-13T00:22:38.726Z,53.90
2018-07-13T00:27:49.645Z,54.40
2018-07-13T00:32:52.987Z,55.00
2018-07-13T00:42:59.436Z,54.50
2018-07-13T00:48:02.771Z,54.60
2018-07-13T00:53:06.145Z,54.50
2018-07-13T00:58:09.497Z,54.40
2018-07-13T01:03:12.837Z,54.60
2018-07-13T01:08:16.233Z,54.80
2018-07-13T01:13:19.928Z,55.00
2018-07-13T01:18:23.456Z,54.90
2018-07-13T01:23:26.789Z,54.90
2018-07-13T01:28:30.117Z,54.70
2018-07-13T01:33:33.461Z,54.70
2018-07-13T01:38:36.785Z,54.50
2018-07-13T01:43:40.150Z,54.80
2018-07-13T01:48:43.494Z,55.00
2018-07-13T01:53:46.854Z,55.10
2018-07-13T01:58:50.244Z,55.00
2018-07-13T02:03:53.589Z,55.00
2018-07-13T02:08:56.924Z,55.00
2018-07-13T02:14:00.283Z,55.00
2018-07-13T02:19:03.646Z,55.00
2018-07-13T02:24:06.972Z,55.20
2018-07-13T02:29:10.295Z,55.20
2018-07-13T02:34:13.633Z,55.40
2018-07-13T02:39:16.981Z,55.20
2018-07-13T02:44:20.349Z,55.40
2018-07-13T02:49:23.709Z,55.60
2018-07-13T02:54:27.069Z,55.80
2018-07-13T02:59:30.388Z,55.50
2018-07-13T03:04:33.731Z,55.70
2018-07-13T03:09:37.052Z,55.60
2018-07-13T03:14:40.395Z,55.60
2018-07-13T03:19:43.728Z,55.60
2018-07-13T03:24:47.054Z,55.40
2018-07-13T03:29:50.372Z,55.40
2018-07-13T03:34:53.684Z,55.60
2018-07-13T03:39:57.004Z,55.50
2018-07-13T03:45:00.342Z,55.80
2018-07-13T03:50:03.753Z,56.00
2018-07-13T03:55:07.098Z,56.10
2018-07-13T04:00:11.304Z,56.80
2018-07-13T04:05:14.720Z,56.00
2018-07-13T04:10:18.074Z,56.30
2018-07-13T04:15:21.429Z,56.30
2018-07-13T04:20:24.784Z,56.40
2018-07-13T04:25:28.157Z,56.40
2018-07-13T04:30:31.629Z,56.50
2018-07-13T04:35:34.969Z,56.80
2018-07-13T04:40:38.302Z,56.80
2018-07-13T04:45:41.747Z,56.90
2018-07-13T04:50:45.118Z,57.00
2018-07-13T04:55:48.575Z,57.10
2018-07-13T05:00:51.970Z,57.20
2018-07-13T05:05:55.339Z,57.60
2018-07-13T05:10:58.721Z,57.80
2018-07-13T05:16:02.093Z,57.80
2018-07-13T05:21:05.491Z,58.10
2018-07-13T05:26:08.952Z,58.60
2018-07-13T05:31:12.897Z,59.10
2018-07-13T05:36:16.277Z,59.40
2018-07-13T05:41:20.569Z,59.50
2018-07-13T05:46:23.996Z,59.70
2018-07-13T05:51:27.396Z,60.20
2018-07-13T05:56:30.837Z,60.30
2018-07-13T06:01:34.234Z,60.20
2018-07-13T06:06:37.626Z,60.00
2018-07-13T06:11:42.001Z,60.00
2018-07-13T06:16:45.342Z,60.30
2018-07-13T06:21:48.784Z,60.30
2018-07-13T06:26:52.302Z,60.50
2018-07-13T06:31:55.648Z,60.70
2018-07-13T06:36:59.057Z,60.70
2018-07-13T06:47:05.608Z,61.00
2018-07-13T06:52:08.981Z,60.70
2018-07-13T06:58:18.721Z,61.00
2018-07-13T07:03:22.729Z,60.80
2018-07-13T07:08:26.115Z,61.10
2018-07-13T07:13:35.295Z,61.00
2018-07-13T07:18:38.667Z,60.70
2018-07-13T07:28:45.110Z,61.00
2018-07-13T07:33:48.491Z,60.60
2018-07-13T07:38:51.889Z,60.40
2018-07-13T07:43:55.373Z,61.00
2018-07-13T07:48:58.693Z,60.60
2018-07-13T07:54:02.049Z,60.80
2018-07-13T07:59:05.497Z,60.20
2018-07-13T08:04:08.808Z,59.80
2018-07-13T08:09:12.193Z,59.50
2018-07-13T08:14:15.680Z,59.80
2018-07-13T08:19:19.069Z,58.80
2018-07-13T08:24:23.429Z,58.80
2018-07-13T08:29:30.499Z,58.50
2018-07-13T08:34:33.909Z,57.90
2018-07-13T08:39:37.356Z,57.50
2018-07-13T08:44:40.778Z,57.40
2018-07-13T08:49:44.196Z,57.20
2018-07-13T08:54:47.705Z,56.80
2018-07-13T08:59:51.131Z,56.80
2018-07-13T09:05:05.504Z,56.00
2018-07-13T09:10:11.102Z,56.00
2018-07-13T09:15:14.753Z,56.00
2018-07-13T09:20:18.209Z,55.80
2018-07-13T09:25:21.668Z,55.10
2018-07-13T09:30:25.100Z,54.60
2018-07-13T09:35:28.537Z,53.90
2018-07-13T09:40:32.029Z,54.30
2018-07-13T09:45:35.648Z,53.80
2018-07-13T09:50:39.097Z,53.70
2018-07-13T09:55:42.546Z,53.20
2018-07-13T10:00:51.328Z,52.80
2018-07-13T10:05:54.755Z,52.60
2018-07-13T10:10:58.249Z,53.10
2018-07-13T10:16:01.792Z,53.30
2018-07-13T10:21:06.975Z,52.50
2018-07-13T10:26:12.986Z,52.00
2018-07-13T10:31:16.813Z,52.30
2018-07-13T10:36:20.480Z,51.10
2018-07-13T10:41:24.150Z,51.00
2018-07-13T10:46:27.684Z,50.20
2018-07-13T10:51:31.204Z,49.50
2018-07-13T10:56:34.885Z,49.50
2018-07-13T11:01:38.336Z,49.90
2018-07-13T11:06:42.453Z,49.40
2018-07-13T11:11:46.050Z,48.80
2018-07-13T11:16:49.586Z,48.00
2018-07-13T11:21:53.395Z,47.80
2018-07-13T11:27:00.054Z,47.50
2018-07-13T11:32:03.717Z,46.50
2018-07-13T11:37:07.457Z,46.30
2018-07-13T11:42:13.722Z,45.80
2018-07-13T11:47:17.428Z,45.10
2018-07-13T11:52:21.082Z,44.70
2018-07-13T11:57:24.749Z,46.20
2018-07-13T12:02:28.151Z,43.50
2018-07-13T12:07:31.597Z,44.90
2018-07-13T12:12:34.998Z,45.90
2018-07-13T12:17:38.384Z,46.90
2018-07-13T12:22:41.808Z,47.40
2018-07-13T12:27:45.221Z,48.30
2018-07-13T12:32:48.657Z,49.20
2018-07-13T12:37:52.148Z,49.80
2018-07-13T12:42:55.556Z,50.90
2018-07-13T12:47:58.986Z,52.00
2018-07-13T12:53:03.077Z,52.20
2018-07-13T12:58:06.620Z,51.50
2018-07-13T13:03:10.094Z,51.90
2018-07-13T13:08:13.491Z,51.90
2018-07-13T13:13:16.903Z,52.60
2018-07-13T13:18:20.312Z,52.20
2018-07-13T13:23:23.712Z,52.70
2018-07-13T13:28:27.116Z,52.00
2018-07-13T13:33:30.560Z,52.10
2018-07-13T13:38:33.945Z,53.10
2018-07-13T13:43:37.337Z,53.70
2018-07-13T13:48:41.131Z,53.60
2018-07-13T13:58:47.793Z,53.60
2018-07-13T14:03:51.232Z,52.20
2018-07-13T14:08:54.723Z,51.60
2018-07-13T14:13:58.189Z,52.00
2018-07-13T14:24:04.720Z,51.60
2018-07-13T14:29:08.227Z,52.00
2018-07-13T14:34:11.646Z,52.30
2018-07-13T14:39:15.117Z,52.60
2018-07-13T14:44:18.574Z,53.10
2018-07-13T14:49:22.035Z,52.80
2018-07-13T14:54:25.449Z,52.90
2018-07-13T14:59:28.868Z,53.50
2018-07-13T15:04:32.365Z,53.60
2018-07-13T15:09:35.797Z,53.30
2018-07-13T15:14:39.285Z,53.50
2018-07-13T15:19:42.792Z,53.90
2018-07-13T15:24:46.243Z,54.10
2018-07-13T15:29:49.758Z,53.90
2018-07-13T15:34:53.229Z,53.50
2018-07-13T15:39:56.869Z,53.30
2018-07-13T15:45:00.385Z,52.90
2018-07-13T15:50:03.959Z,52.00
2018-07-13T15:55:07.604Z,52.00
2018-07-13T16:00:11.095Z,52.80
2018-07-13T16:05:14.635Z,52.70
2018-07-13T16:10:18.097Z,52.90
2018-07-13T16:15:22.569Z,53.40
2018-07-13T16:20:26.041Z,53.80
2018-07-13T16:25:30.949Z,53.90
2018-07-13T16:30:34.486Z,54.20
2018-07-13T16:35:37.946Z,53.50
2018-07-13T16:40:43.509Z,53.50
2018-07-13T16:45:46.925Z,53.90
2018-07-13T16:50:50.353Z,53.80
2018-07-13T16:55:53.768Z,53.70
2018-07-13T17:00:57.235Z,54.00
2018-07-13T17:06:00.720Z,53.80
2018-07-13T17:11:04.174Z,53.10
2018-07-13T17:16:07.649Z,53.30
2018-07-13T17:21:11.151Z,53.20
2018-07-13T17:26:14.755Z,53.00
2018-07-13T17:31:18.268Z,53.40
2018-07-13T17:36:21.746Z,53.20
2018-07-13T17:41:25.208Z,53.60
2018-07-13T17:46:28.802Z,53.40
2018-07-13T17:51:32.363Z,53.00
2018-07-13T17:56:35.948Z,53.40
2018-07-13T18:01:39.425Z,53.70
2018-07-13T18:06:42.960Z,53.40
2018-07-13T18:11:46.463Z,53.40
2018-07-13T18:16:49.994Z,53.70
2018-07-13T18:21:53.583Z,53.60
2018-07-13T18:26:57.250Z,54.20
2018-07-13T18:32:00.818Z,53.80
2018-07-13T18:37:04.325Z,53.30
2018-07-13T18:42:07.809Z,53.30
2018-07-13T18:47:14.060Z,53.00
2018-07-13T18:52:27.014Z,53.20
2018-07-13T18:57:31.570Z,53.50
2018-07-13T19:02:35.002Z,53.50
2018-07-13T19:07:38.413Z,53.50
2018-07-13T19:12:41.888Z,53.50
2018-07-13T19:17:45.345Z,53.70
2018-07-13T19:22:48.840Z,54.00
2018-07-13T19:27:52.213Z,54.20
2018-07-13T19:32:55.694Z,54.40
2018-07-13T19:37:59.163Z,54.40
2018-07-13T19:48:06.214Z,54.60
2018-07-13T19:53:09.630Z,54.40
2018-07-13T19:58:13.089Z,54.60
2018-07-13T20:03:16.585Z,54.70
2018-07-13T20:08:20.033Z,55.00
2018-07-13T20:13:23.504Z,55.10
2018-07-13T20:18:27.008Z,55.20
2018-07-13T20:23:30.448Z,55.00
2018-07-13T20:28:33.859Z,54.80
2018-07-13T20:33:38.117Z,54.80
2018-07-13T20:38:41.550Z,54.90
2018-07-13T20:43:44.936Z,54.90
2018-07-13T20:48:48.452Z,54.80
2018-07-13T20:53:51.865Z,55.00
2018-07-13T20:58:55.276Z,55.00
2018-07-13T21:03:59.034Z,55.10
2018-07-13T21:09:02.512Z,55.10
2018-07-13T21:14:05.944Z,55.30
2018-07-13T21:19:09.384Z,55.20
2018-07-13T21:24:12.793Z,55.30
2018-07-13T21:29:16.221Z,55.20
2018-07-13T21:34:19.647Z,55.30
2018-07-13T21:39:23.048Z,55.20
2018-07-13T21:44:26.441Z,55.30
2018-07-13T21:49:29.865Z,55.20
2018-07-13T21:54:33.261Z,55.30
2018-07-13T21:59:36.649Z,55.50
2018-07-13T22:04:40.204Z,55.30
2018-07-13T22:09:43.597Z,55.30
2018-07-13T22:14:47.065Z,55.40
2018-07-13T22:19:50.604Z,55.40
2018-07-13T22:24:54.015Z,55.30
2018-07-13T22:29:57.406Z,55.20
2018-07-13T22:35:00.838Z,55.50
2018-07-13T22:40:04.249Z,55.70
2018-07-13T22:45:07.637Z,55.60
2018-07-13T22:50:11.045Z,55.80
2018-07-13T22:55:14.611Z,55.90
2018-07-13T23:00:18.011Z,56.00
2018-07-13T23:05:21.400Z,56.00
2018-07-13T23:10:24.775Z,55.90
2018-07-13T23:15:28.223Z,55.90
2018-07-13T23:20:31.604Z,55.80
2018-07-13T23:25:35.009Z,55.70
2018-07-13T23:30:38.545Z,55.60
2018-07-13T23:35:41.946Z,55.80
2018-07-13T23:40:45.354Z,55.90
2018-07-13T23:45:48.736Z,56.10
2018-07-13T23:50:52.136Z,55.90
2018-07-13T23:55:55.526Z,56.00
